Time;durP1;ratioP1;P1;durP2;ratioP2;P2;SDS_P1;SDS_P2;PMS_P1;PMS_P2;Temp;Humidity;BMP_temperature;BMP_pressure;BME280_temperature;BME280_humidity;BME280_pressure;Samples;Min_cycle;Max_cycle;Signal;HPM_P1;HPM_P2
2022/09/23 00:02:33;;;;;;;2.13;1.87;;;3.90;99.90;4.60;97321.00;;;;5070804;28;20431;-74
2022/09/23 00:05:23;;;;;;;6.80;2.77;;;3.90;99.90;4.50;97315.00;;;;5069554;28;20447;-74
2022/09/23 00:08:12;;;;;;;2.87;2.67;;;3.90;99.90;4.10;97316.00;;;;5058920;28;20430;-74
2022/09/23 00:11:06;;;;;;;3.10;2.77;;;3.90;99.90;4.20;97321.00;;;;5069175;28;20429;-74
2022/09/23 00:13:58;;;;;;;3.13;2.83;;;3.70;99.90;4.30;97319.00;;;;5070540;28;20419;-75
2022/09/23 00:16:47;;;;;;;2.40;2.23;;;3.70;99.90;4.40;97304.00;;;;5070987;28;20834;-74
2022/09/23 00:19:38;;;;;;;3.03;2.77;;;3.70;99.90;4.40;97306.00;;;;5071188;28;20415;-74
2022/09/23 00:22:28;;;;;;;2.70;2.47;;;3.70;99.90;4.50;97309.00;;;;5074624;28;20532;-75
2022/09/23 00:25:17;;;;;;;1.80;1.70;;;3.80;99.90;4.40;97303.00;;;;5068655;28;20470;-74
2022/09/23 00:28:05;;;;;;;2.80;2.50;;;3.80;99.90;4.10;97305.00;;;;5068693;28;20423;-73
2022/09/23 00:30:54;;;;;;;2.53;2.27;;;3.70;99.90;4.20;97313.00;;;;5059994;28;20465;-75
2022/09/23 00:33:43;;;;;;;2.03;1.93;;;3.70;99.90;4.00;97302.00;;;;5069194;28;20431;-74
2022/09/23 00:36:32;;;;;;;3.07;2.27;;;3.60;99.90;3.90;97292.00;;;;5071023;28;20501;-74
2022/09/23 00:39:22;;;;;;;2.53;2.30;;;3.50;99.90;3.80;97296.00;;;;5069808;28;20541;-75
2022/09/23 00:42:16;;;;;;;2.00;1.90;;;3.50;99.90;3.70;97300.00;;;;5069556;28;20411;-71
2022/09/23 00:45:09;;;;;;;2.87;2.67;;;3.50;99.90;3.90;97300.00;;;;5069257;28;20466;-74
2022/09/23 00:48:01;;;;;;;2.10;2.00;;;3.50;99.90;4.00;97292.00;;;;5064895;28;20434;-74
2022/09/23 00:50:53;;;;;;;3.13;2.83;;;3.50;99.90;3.90;97300.00;;;;5069198;28;20785;-74
2022/09/23 00:53:42;;;;;;;5.30;2.90;;;3.50;99.90;3.70;97284.00;;;;5069541;28;20804;-74
2022/09/23 00:56:33;;;;;;;2.77;2.53;;;3.40;99.90;3.50;97283.00;;;;5058966;22;20512;-89
2022/09/23 00:59:25;;;;;;;2.87;2.67;;;3.20;99.90;3.60;97269.00;;;;5059998;28;20458;-87
2022/09/23 01:02:15;;;;;;;3.07;2.77;;;3.20;99.90;3.80;97273.00;;;;5067093;28;20431;-87
2022/09/23 01:05:05;;;;;;;2.87;2.67;;;3.60;99.90;3.80;97272.00;;;;5076917;28;20833;-88
2022/09/23 01:07:56;;;;;;;4.57;2.00;;;3.20;99.90;3.90;97275.00;;;;5076940;28;20463;-89
2022/09/23 01:10:59;;;;;;;1.83;1.73;;;3.30;99.90;4.10;97270.00;;;;5075705;28;20446;-88
2022/09/23 01:14:00;;;;;;;4.37;2.43;;;3.50;99.90;4.00;97265.00;;;;5067878;28;20430;-91
2022/09/23 01:16:57;;;;;;;2.47;2.27;;;3.40;99.90;4.10;97267.00;;;;5076609;28;20428;-87
2022/09/23 01:20:34;;;;;;;4.87;3.17;;;3.40;99.90;4.10;97264.00;;;;5075908;28;20455;-89
2022/09/23 01:24:02;;;;;;;2.63;2.43;;;3.50;99.90;3.90;97263.00;;;;5063579;28;20476;-90
2022/09/23 01:27:06;;;;;;;2.80;2.60;;;3.70;99.90;3.70;97259.00;;;;5075966;28;20426;-90
2022/09/23 01:30:30;;;;;;;2.60;2.40;;;3.30;99.90;3.60;97245.00;;;;5066489;28;20430;-90
2022/09/23 01:33:26;;;;;;;2.33;2.23;;;3.20;99.90;3.80;97256.00;;;;5086236;22;20506;-73
2022/09/23 01:36:23;;;;;;;2.33;2.13;;;3.20;99.90;3.60;97242.00;;;;5088560;28;20440;-73
2022/09/23 01:39:17;;;;;;;2.10;2.00;;;3.20;99.90;3.40;97246.00;;;;5093159;28;21011;-72
2022/09/23 01:42:16;;;;;;;2.30;2.20;;;3.10;99.90;3.50;97244.00;;;;5093239;28;20418;-72
2022/09/23 01:45:11;;;;;;;4.60;2.90;;;3.10;99.90;3.70;97245.00;;;;5092496;28;20554;-72
2022/09/23 01:48:09;;;;;;;3.43;2.67;;;3.10;99.90;3.30;97244.00;;;;5085847;28;20429;-71
2022/09/23 01:51:06;;;;;;;3.20;2.53;;;3.10;99.90;3.10;97234.00;;;;5082099;28;20422;-72
2022/09/23 01:54:04;;;;;;;2.43;2.33;;;2.90;99.90;3.30;97232.00;;;;5092582;28;20432;-74
2022/09/23 01:56:59;;;;;;;2.00;1.73;;;2.90;99.90;3.20;97235.00;;;;5091697;28;20997;-74
2022/09/23 01:59:51;;;;;;;2.50;2.30;;;2.90;99.90;3.30;97242.00;;;;5091475;28;20413;-73
2022/09/23 02:02:48;;;;;;;2.40;2.20;;;2.90;99.90;3.20;97235.00;;;;5092346;28;20425;-73
2022/09/23 02:05:42;;;;;;;5.37;2.43;;;2.80;99.90;3.30;97227.00;;;;5091965;28;20461;-73
2022/09/23 02:08:37;;;;;;;2.23;2.03;;;2.80;99.90;3.20;97236.00;;;;5092568;28;20487;-73
2022/09/23 02:11:26;;;;;;;17.23;3.07;;;2.80;99.90;3.60;97230.00;;;;5091967;28;20441;-73
2022/09/23 02:14:24;;;;;;;2.67;2.47;;;2.90;99.90;3.70;97231.00;;;;5092869;28;20467;-74
2022/09/23 02:17:18;;;;;;;1.93;1.83;;;3.00;99.90;3.10;97229.00;;;;5091866;28;20973;-74
2022/09/23 02:20:09;;;;;;;3.20;2.73;;;3.50;99.90;3.30;97234.00;;;;5085316;28;20475;-74
2022/09/23 02:23:06;;;;;;;3.23;2.93;;;2.90;99.90;3.40;97235.00;;;;5090555;28;20422;-73
2022/09/23 02:26:07;;;;;;;2.70;2.50;;;2.90;99.90;3.70;97246.00;;;;5091547;28;20476;-72
2022/09/23 02:29:07;;;;;;;3.17;2.87;;;3.00;99.90;3.80;97233.00;;;;5081646;28;20425;-74
2022/09/23 02:32:00;;;;;;;3.03;2.73;;;3.00;99.90;3.70;97233.00;;;;5091537;28;20508;-74
2022/09/23 02:34:59;;;;;;;2.93;2.73;;;3.10;99.90;2.90;97230.00;;;;5092107;28;20441;-71
2022/09/23 02:38:02;;;;;;;2.67;2.47;;;4.00;99.90;3.00;97240.00;;;;5091672;28;20430;-71
2022/09/23 02:41:03;;;;;;;2.00;1.90;;;2.70;99.90;2.90;97228.00;;;;5091245;28;20421;-72
2022/09/23 02:43:58;;;;;;;3.17;2.87;;;2.70;99.90;3.40;97237.00;;;;5091172;28;20471;-73
2022/09/23 02:46:49;;;;;;;2.47;2.27;;;2.70;99.90;3.50;97234.00;;;;5092156;28;20442;-72
2022/09/23 02:49:38;;;;;;;2.23;2.13;;;2.80;99.90;2.90;97231.00;;;;5091239;28;20432;-72
2022/09/23 02:52:27;;;;;;;2.60;2.40;;;2.70;99.90;2.70;97230.00;;;;5091602;28;20482;-67
2022/09/23 02:55:18;;;;;;;2.40;2.20;;;2.60;99.90;2.70;97226.00;;;;5092040;28;20434;-74
2022/09/23 02:58:10;;;;;;;2.53;2.03;;;2.50;99.90;2.70;97211.00;;;;5079370;28;20414;-72
2022/09/23 03:01:11;;;;;;;3.67;2.77;;;2.50;99.90;3.30;97228.00;;;;5092480;28;20479;-74
2022/09/23 03:04:14;;;;;;;2.60;2.40;;;2.60;99.90;3.40;97224.00;;;;5091091;28;20421;-74
2022/09/23 03:07:10;;;;;;;4.50;3.10;;;2.70;99.90;2.90;97223.00;;;;5091872;28;20448;-72
2022/09/23 03:10:08;;;;;;;3.00;2.70;;;2.70;99.90;3.10;97225.00;;;;5081632;28;20448;-72
2022/09/23 03:13:14;;;;;;;2.97;2.23;;;2.60;99.90;2.60;97219.00;;;;5091607;28;20464;-72
2022/09/23 03:16:12;;;;;;;1.97;1.87;;;2.50;99.90;2.40;97218.00;;;;5090864;28;20868;-73
2022/09/23 03:19:17;;;;;;;2.83;2.63;;;2.30;99.90;2.50;97210.00;;;;5090240;28;20422;-73
2022/09/23 03:22:11;;;;;;;2.73;2.53;;;2.30;99.90;2.80;97206.00;;;;5087061;28;20843;-73
2022/09/23 03:25:03;;;;;;;2.73;2.53;;;2.40;99.90;3.00;97204.00;;;;5088262;28;20457;-72
2022/09/23 03:27:57;;;;;;;4.40;2.20;;;2.40;99.90;2.90;97209.00;;;;5096372;28;20469;-69
2022/09/23 03:30:49;;;;;;;2.57;2.37;;;2.50;99.90;3.00;97218.00;;;;5081396;28;20934;-73
2022/09/23 03:33:41;;;;;;;2.37;2.23;;;2.50;99.90;3.10;97205.00;;;;5089083;28;20441;-72
2022/09/23 03:36:52;;;;;;;2.57;2.37;;;2.50;99.90;3.10;97194.00;;;;5087779;28;20514;-73
2022/09/23 03:39:44;;;;;;;3.40;3.20;;;4.50;99.90;3.00;97201.00;;;;5092637;28;20435;-74
2022/09/23 03:42:34;;;;;;;3.27;2.97;;;2.60;99.90;2.90;97200.00;;;;5075563;28;20476;-73
2022/09/23 03:45:26;;;;;;;3.23;2.10;;;2.50;99.90;2.70;97178.00;;;;5097360;28;20461;-72
2022/09/23 03:48:16;;;;;;;2.47;2.13;;;2.40;99.90;2.40;97186.00;;;;5088050;28;20437;-73
2022/09/23 03:51:22;;;;;;;4.83;2.67;;;2.30;99.90;2.10;97181.00;;;;5073897;28;20472;-70
2022/09/23 03:54:11;;;;;;;4.33;2.50;;;2.20;99.90;2.30;97184.00;;;;5090510;28;20433;-70
2022/09/23 03:57:01;;;;;;;4.00;2.80;;;2.10;99.90;2.20;97184.00;;;;5089712;28;20491;-73
2022/09/23 03:59:51;;;;;;;3.23;2.93;;;2.10;99.90;2.50;97193.00;;;;5089471;28;20449;-70
2022/09/23 04:02:41;;;;;;;4.57;3.20;;;2.10;99.90;2.60;97186.00;;;;5090481;28;20414;-73
2022/09/23 04:05:31;;;;;;;2.50;2.33;;;2.10;99.90;2.50;97189.00;;;;5091144;28;20473;-69
2022/09/23 04:08:19;;;;;;;3.47;2.73;;;2.10;99.90;2.80;97182.00;;;;5079216;28;20414;-71
2022/09/23 04:11:08;;;;;;;3.53;2.50;;;2.20;99.90;2.70;97181.00;;;;5087697;28;20445;-71
2022/09/23 04:13:57;;;;;;;2.93;2.73;;;2.20;99.90;2.80;97172.00;;;;5088251;28;20449;-74
2022/09/23 04:16:47;;;;;;;6.60;2.37;;;2.30;99.90;2.70;97171.00;;;;5082383;28;20442;-72
2022/09/23 04:19:35;;;;;;;2.97;2.67;;;2.30;99.90;2.90;97177.00;;;;5078809;28;20799;-75
2022/09/23 04:22:26;;;;;;;3.30;2.23;;;2.30;99.90;2.90;97183.00;;;;5078397;28;20522;-74
2022/09/23 04:25:14;;;;;;;6.70;2.97;;;2.30;99.90;2.50;97177.00;;;;5088892;28;20469;-72
2022/09/23 04:28:03;;;;;;;5.90;3.37;;;2.30;99.90;2.40;97171.00;;;;5089675;28;21018;-70
2022/09/23 04:30:53;;;;;;;3.37;3.07;;;2.10;99.90;2.60;97168.00;;;;5091164;28;20437;-71
2022/09/23 04:33:41;;;;;;;3.07;2.77;;;2.20;99.90;2.70;97170.00;;;;5086032;28;20998;-71
2022/09/23 04:36:30;;;;;;;4.17;3.00;;;2.20;99.90;2.90;97170.00;;;;5088192;28;20527;-73
2022/09/23 04:39:20;;;;;;;3.83;3.37;;;2.30;99.90;3.20;97167.00;;;;5091227;28;20418;-72
2022/09/23 04:42:09;;;;;;;4.63;3.30;;;2.40;99.90;3.00;97175.00;;;;5079886;28;20470;-73
2022/09/23 04:44:57;;;;;;;2.63;2.47;;;2.40;99.90;2.80;97176.00;;;;5088978;28;20457;-72
2022/09/23 04:47:46;;;;;;;3.00;2.70;;;2.40;99.90;2.50;97174.00;;;;5089432;28;20467;-72
2022/09/23 04:50:35;;;;;;;6.33;3.53;;;2.30;99.90;2.10;97159.00;;;;5089162;28;20833;-71
2022/09/23 04:53:24;;;;;;;8.17;2.73;;;2.20;99.90;2.20;97171.00;;;;5081223;28;20512;-73
2022/09/23 04:56:18;;;;;;;2.93;2.73;;;2.00;99.90;1.90;97171.00;;;;5089630;28;20807;-74
2022/09/23 04:59:07;;;;;;;4.37;3.57;;;1.90;99.90;2.20;97172.00;;;;5090206;28;20422;-73
2022/09/23 05:01:56;;;;;;;5.87;2.77;;;1.90;99.90;2.10;97175.00;;;;5093346;28;20422;-70
2022/09/23 05:04:44;;;;;;;2.70;2.43;;;1.80;99.90;2.30;97183.00;;;;5093624;28;20424;-69
2022/09/23 05:07:34;;;;;;;3.83;3.47;;;1.90;99.90;2.40;97179.00;;;;5092415;28;20481;-73
2022/09/23 05:10:23;;;;;;;2.60;2.40;;;2.00;99.90;2.40;97175.00;;;;5085924;28;20506;-71
2022/09/23 05:13:13;;;;;;;3.50;3.20;;;2.00;99.90;2.20;97177.00;;;;5092843;28;20428;-73
2022/09/23 05:16:05;;;;;;;2.03;1.83;;;1.90;99.90;2.00;97180.00;;;;5081656;28;20452;-69
2022/09/23 05:18:54;;;;;;;3.73;1.90;;;1.90;99.90;2.10;97178.00;;;;5078900;28;20433;-73
2022/09/23 05:21:43;;;;;;;2.73;2.53;;;1.90;99.90;2.20;97178.00;;;;5092407;28;20436;-72
2022/09/23 05:24:31;;;;;;;3.70;3.13;;;1.90;99.90;2.40;97186.00;;;;5092251;28;20470;-73
2022/09/23 05:27:20;;;;;;;3.47;2.77;;;2.00;99.90;2.80;97176.00;;;;5091007;28;20498;-73
2022/09/23 05:30:12;;;;;;;3.00;2.67;;;2.10;99.90;2.80;97184.00;;;;5087643;28;20461;-70
2022/09/23 05:33:01;;;;;;;4.50;2.90;;;2.20;99.90;3.00;97183.00;;;;5092568;28;20479;-71
2022/09/23 05:35:50;;;;;;;3.97;2.80;;;2.30;99.90;3.00;97183.00;;;;5082223;28;20832;-72
2022/09/23 05:38:39;;;;;;;3.10;2.80;;;2.50;99.90;2.90;97187.00;;;;5087640;28;20430;-69
2022/09/23 05:41:28;;;;;;;5.20;3.00;;;2.40;99.90;2.70;97187.00;;;;5087560;28;20615;-74
2022/09/23 05:44:16;;;;;;;2.60;2.40;;;2.50;99.90;2.50;97183.00;;;;5089719;28;20465;-72
2022/09/23 05:47:07;;;;;;;2.63;2.37;;;2.40;99.90;2.70;97174.00;;;;5091900;28;20476;-68
2022/09/23 05:49:55;;;;;;;4.13;3.27;;;2.40;99.90;2.90;97188.00;;;;5087393;28;20794;-70
2022/09/23 05:52:46;;;;;;;3.07;2.60;;;2.50;99.90;3.30;97181.00;;;;5091734;28;20905;-69
2022/09/23 05:55:35;;;;;;;3.80;3.50;;;2.60;99.90;3.70;97183.00;;;;5092543;28;20475;-72
2022/09/23 05:58:24;;;;;;;3.53;3.23;;;2.90;99.90;3.50;97183.00;;;;5091722;28;20473;-73
2022/09/23 06:01:16;;;;;;;3.67;3.07;;;3.00;99.90;3.50;97174.00;;;;5090381;28;20679;-72
2022/09/23 06:04:08;;;;;;;6.23;5.30;;;3.00;99.90;3.40;97185.00;;;;5090590;28;20441;-67
2022/09/23 06:06:57;;;;;;;4.07;3.50;;;3.00;99.90;3.30;97176.00;;;;5081130;28;20841;-73
2022/09/23 06:09:49;;;;;;;4.73;4.00;;;3.00;99.90;3.90;97179.00;;;;5091265;28;20421;-73
2022/09/23 06:12:38;;;;;;;6.47;5.83;;;3.10;99.90;4.00;97182.00;;;;5086238;28;20418;-72
2022/09/23 06:15:26;;;;;;;5.27;4.70;;;3.20;99.90;4.00;97177.00;;;;5086430;28;20432;-72
2022/09/23 06:18:16;;;;;;;4.87;3.77;;;3.30;99.90;4.20;97181.00;;;;5086260;28;20425;-69
2022/09/23 06:21:06;;;;;;;8.83;7.63;;;3.50;99.90;4.50;97182.00;;;;5083697;28;20482;-74
2022/09/23 06:23:55;;;;;;;7.80;5.33;;;3.60;99.90;4.80;97184.00;;;;5081136;28;20426;-73
2022/09/23 06:26:44;;;;;;;10.93;5.57;;;3.80;99.90;4.80;97183.00;;;;5088055;28;20469;-72
2022/09/23 06:29:33;;;;;;;8.23;6.17;;;4.00;99.90;5.20;97183.00;;;;5090024;28;21150;-73
2022/09/23 06:32:21;;;;;;;6.20;4.93;;;4.10;99.90;5.20;97182.00;;;;5085064;28;20496;-73
2022/09/23 06:35:10;;;;;;;12.27;7.70;;;4.30;99.90;5.10;97183.00;;;;5091899;28;20406;-74
2022/09/23 06:38:08;;;;;;;7.50;5.20;;;4.40;99.90;5.20;97178.00;;;;5091555;28;20433;-69
2022/09/23 06:40:58;;;;;;;8.00;6.97;;;4.50;99.90;5.70;97190.00;;;;5091485;28;20427;-72
2022/09/23 06:43:47;;;;;;;7.90;5.63;;;4.60;99.90;6.00;97187.00;;;;5089567;28;20425;-72
2022/09/23 06:46:36;;;;;;;8.17;6.57;;;4.80;99.90;6.50;97188.00;;;;5087703;28;20469;-72
2022/09/23 06:49:25;;;;;;;11.20;7.27;;;5.10;99.90;6.40;97192.00;;;;5089290;28;20426;-69
2022/09/23 06:52:14;;;;;;;9.53;6.27;;;5.40;99.90;6.80;97187.00;;;;5090624;28;20504;-73
2022/09/23 06:55:04;;;;;;;8.80;7.20;;;5.60;99.90;7.10;97196.00;;;;5091179;28;20324;-74
2022/09/23 06:57:53;;;;;;;8.13;5.43;;;5.80;99.90;7.30;97191.00;;;;5110445;22;20683;-81
2022/09/23 07:00:42;;;;;;;9.53;5.80;;;6.20;99.90;7.50;97185.00;;;;5131166;28;20233;-81
2022/09/23 07:03:30;;;;;;;5.27;4.67;;;6.30;99.90;7.50;97194.00;;;;5124490;27;20246;-83
2022/09/23 07:06:19;;;;;;;10.53;6.33;;;6.50;99.90;7.60;97193.00;;;;5082674;28;20255;-84
2022/09/23 07:09:09;;;;;;;7.10;5.40;;;6.70;99.90;7.90;97184.00;;;;5085853;28;20213;-83
2022/09/23 07:11:59;;;;;;;9.67;6.43;;;6.90;99.90;8.20;97191.00;;;;5098062;28;20208;-84
2022/09/23 07:14:48;;;;;;;6.97;5.40;;;7.00;99.90;8.30;97189.00;;;;5086947;28;20280;-83
2022/09/23 07:17:37;;;;;;;10.63;5.63;;;7.20;99.90;8.60;97195.00;;;;5092459;28;20210;-83
2022/09/23 07:20:26;;;;;;;10.90;6.47;;;7.40;99.90;8.90;97189.00;;;;5092151;27;20196;-84
2022/09/23 07:23:16;;;;;;;5.63;4.90;;;7.60;99.90;9.00;97194.00;;;;5089009;28;20224;-84
2022/09/23 07:26:06;;;;;;;9.93;5.00;;;7.80;99.90;9.10;97191.00;;;;5094378;28;20195;-84
2022/09/23 07:29:03;;;;;;;8.00;4.73;;;7.90;99.90;9.30;97195.00;;;;5085454;28;20200;-84
2022/09/23 07:31:52;;;;;;;6.73;4.50;;;8.10;99.90;9.70;97202.00;;;;5092266;27;20200;-84
2022/09/23 07:34:43;;;;;;;6.23;4.70;;;8.30;99.90;9.90;97201.00;;;;5103774;22;20220;-74
2022/09/23 07:37:31;;;;;;;5.93;4.63;;;8.50;99.90;10.20;97195.00;;;;5089143;28;20281;-75
2022/09/23 07:40:20;;;;;;;5.37;4.83;;;8.80;99.90;10.60;97196.00;;;;5082953;28;20203;-74
2022/09/23 07:43:09;;;;;;;8.37;5.10;;;8.90;99.90;10.70;97190.00;;;;5086838;28;20195;-75
2022/09/23 07:46:01;;;;;;;6.00;4.63;;;9.20;99.90;10.80;97193.00;;;;5081832;28;20252;-75
2022/09/23 07:48:51;;;;;;;7.17;4.23;;;9.30;99.90;11.00;97194.00;;;;5088555;28;20206;-75
2022/09/23 07:51:44;;;;;;;7.47;4.77;;;9.50;99.90;11.20;97198.00;;;;5086875;28;20199;-75
2022/09/23 07:54:33;;;;;;;4.70;4.00;;;9.70;99.90;11.20;97188.00;;;;5089903;28;20249;-75
2022/09/23 07:57:22;;;;;;;6.10;4.90;;;9.80;99.90;11.50;97200.00;;;;5089615;28;20288;-75
2022/09/23 08:00:13;;;;;;;5.90;4.50;;;10.00;99.90;11.70;97199.00;;;;5088074;28;20753;-75
2022/09/23 08:03:03;;;;;;;5.70;3.97;;;10.10;99.90;12.00;97202.00;;;;5089326;28;20254;-75
2022/09/23 08:05:52;;;;;;;6.97;4.37;;;10.30;99.90;12.20;97205.00;;;;5079352;28;20416;-75
2022/09/23 08:08:42;;;;;;;9.10;4.00;;;10.50;99.90;12.20;97206.00;;;;5088323;28;20230;-75
2022/09/23 08:11:31;;;;;;;6.90;4.13;;;10.70;99.90;12.40;97200.00;;;;5091151;28;20199;-75
2022/09/23 08:14:21;;;;;;;5.00;3.80;;;10.90;99.90;12.60;97200.00;;;;5092988;28;20210;-75
2022/09/23 08:17:11;;;;;;;5.37;3.90;;;11.00;99.90;12.40;97200.00;;;;5096076;28;20219;-75
2022/09/23 08:20:02;;;;;;;5.50;3.90;;;11.10;99.90;12.70;97199.00;;;;5090513;28;20357;-76
2022/09/23 08:22:51;;;;;;;3.97;3.10;;;11.20;99.90;12.70;97193.00;;;;5087543;28;20199;-75
2022/09/23 08:25:40;;;;;;;4.87;3.93;;;11.30;99.90;12.90;97201.00;;;;5082449;28;20199;-73
2022/09/23 08:28:32;;;;;;;6.30;3.87;;;11.40;99.90;13.10;97203.00;;;;5090737;28;20223;-74
2022/09/23 08:31:22;;;;;;;5.77;3.60;;;11.50;99.90;13.40;97209.00;;;;5084637;28;20203;-73
2022/09/23 08:34:11;;;;;;;7.37;3.80;;;11.70;99.90;13.40;97192.00;;;;5101531;28;20183;-73
2022/09/23 08:37:01;;;;;;;5.10;3.30;;;11.80;99.90;13.50;97199.00;;;;5091852;28;20379;-73
2022/09/23 08:39:50;;;;;;;3.73;3.20;;;12.00;99.90;13.80;97193.00;;;;5092219;28;20202;-73
2022/09/23 08:42:42;;;;;;;4.83;3.47;;;12.20;99.90;14.10;97191.00;;;;5093106;28;20203;-73
2022/09/23 08:45:31;;;;;;;6.90;4.10;;;12.30;99.90;14.00;97196.00;;;;5092121;28;20187;-73
2022/09/23 08:48:28;;;;;;;4.53;3.63;;;12.50;99.90;14.20;97197.00;;;;5092941;28;20238;-72
2022/09/23 08:51:23;;;;;;;8.27;3.80;;;12.60;99.90;14.10;97189.00;;;;5091931;28;20210;-73
2022/09/23 08:54:16;;;;;;;6.27;2.97;;;12.80;99.90;14.40;97189.00;;;;5092601;28;20809;-74
2022/09/23 08:57:08;;;;;;;4.53;3.27;;;12.90;99.90;14.70;97185.00;;;;5096098;28;20215;-74
2022/09/23 08:59:58;;;;;;;9.07;3.33;;;13.00;99.90;15.00;97193.00;;;;5090890;28;20826;-75
2022/09/23 09:02:48;;;;;;;4.63;3.30;;;13.20;99.90;15.40;97192.00;;;;5092098;28;20200;-75
2022/09/23 09:05:37;;;;;;;3.53;2.60;;;13.40;99.90;15.40;97193.00;;;;5090591;28;20203;-73
2022/09/23 09:08:32;;;;;;;5.47;3.17;;;13.70;99.90;15.60;97187.00;;;;5089179;28;20223;-73
2022/09/23 09:11:30;;;;;;;3.97;2.87;;;13.90;99.90;15.70;97175.00;;;;5084127;28;20680;-73
2022/09/23 09:14:25;;;;;;;3.40;3.10;;;14.00;99.90;16.20;97175.00;;;;5085390;28;20263;-73
2022/09/23 09:17:23;;;;;;;3.73;2.60;;;14.20;99.90;16.10;97171.00;;;;5087568;28;20259;-73
2022/09/23 09:20:23;;;;;;;3.10;2.33;;;14.40;99.90;16.40;97170.00;;;;5090223;28;20570;-73
2022/09/23 09:23:22;;;;;;;4.20;2.20;;;14.60;99.90;16.80;97179.00;;;;5091860;28;20214;-73
2022/09/23 09:26:17;;;;;;;2.60;2.40;;;14.80;99.90;16.40;97171.00;;;;5092336;28;20627;-73
2022/09/23 09:29:14;;;;;;;3.87;3.07;;;14.90;99.90;17.00;97168.00;;;;5081485;28;20262;-73
2022/09/23 09:32:33;;;;;;;6.17;2.37;;;15.10;99.90;17.40;97170.00;;;;5087142;28;20245;-72
2022/09/23 09:35:33;;;;;;;2.90;2.37;;;15.30;99.90;17.20;97164.00;;;;5091702;28;20293;-72
2022/09/23 09:38:22;;;;;;;3.73;2.70;;;15.50;99.90;17.60;97171.00;;;;5087681;28;20273;-73
2022/09/23 09:41:16;;;;;;;2.80;2.60;;;15.60;99.90;17.70;97165.00;;;;5090626;28;20214;-72
2022/09/23 09:44:28;;;;;;;2.50;2.30;;;15.80;99.90;18.10;97168.00;;;;5081611;28;20211;-72
2022/09/23 09:47:35;;;;;;;4.80;2.77;;;16.00;99.90;17.80;97152.00;;;;5084911;28;20296;-73
2022/09/23 09:50:45;;;;;;;2.50;2.17;;;16.20;99.70;15.70;97132.00;;;;5092021;28;20458;-72
2022/09/23 09:53:35;;;;;;;3.07;1.83;;;15.60;96.80;17.10;97149.00;;;;5077050;28;20222;-70
2022/09/23 09:56:31;;;;;;;3.17;1.93;;;15.50;99.10;18.00;97154.00;;;;5087426;28;20200;-70
2022/09/23 09:59:28;;;;;;;2.40;1.73;;;15.80;99.10;18.10;97147.00;;;;5085806;28;20279;-71
2022/09/23 10:02:28;;;;;;;2.67;2.10;;;16.10;97.00;18.30;97138.00;;;;5078822;28;20237;-71
2022/09/23 10:05:29;;;;;;;2.40;2.20;;;16.40;97.40;18.30;97135.00;;;;5089118;28;20685;-70
2022/09/23 10:08:25;;;;;;;2.33;2.00;;;16.50;96.70;18.10;97130.00;;;;5086237;28;20230;-72
2022/09/23 10:11:16;;;;;;;2.13;1.93;;;16.60;95.20;18.70;97120.00;;;;5084560;28;20199;-74
2022/09/23 10:14:11;;;;;;;3.27;1.90;;;16.80;92.50;18.60;97114.00;;;;5090570;28;20195;-73
2022/09/23 10:17:07;;;;;;;2.40;1.80;;;16.90;92.50;19.00;97111.00;;;;5082111;28;20234;-73
2022/09/23 10:20:00;;;;;;;2.10;1.90;;;17.10;93.30;19.40;97121.00;;;;5090933;28;20210;-73
2022/09/23 10:22:48;;;;;;;2.43;1.90;;;17.30;92.90;19.10;97111.00;;;;5090253;28;20218;-72
2022/09/23 10:25:37;;;;;;;5.53;1.97;;;17.50;90.00;19.70;97111.00;;;;5079687;28;20199;-73
2022/09/23 10:28:50;;;;;;;1.87;1.67;;;17.60;91.20;20.50;97115.00;;;;5081348;28;20231;-71
2022/09/23 10:31:39;;;;;;;1.67;1.57;;;18.00;91.90;20.30;97108.00;;;;5096113;28;20610;-72
2022/09/23 10:34:33;;;;;;;1.40;1.30;;;18.30;89.40;20.60;97099.00;;;;5087107;28;20240;-72
2022/09/23 10:37:31;;;;;;;1.60;1.50;;;18.50;87.10;20.40;97099.00;;;;5092633;28;20227;-73
2022/09/23 10:47:02;;;;;;;1.87;1.50;;;19.00;83.00;21.60;97098.00;;;;5088584;28;20215;-72
2022/09/23 10:50:11;;;;;;;1.63;1.53;;;19.30;82.70;21.80;97094.00;;;;5080748;28;20638;-72
2022/09/23 10:53:13;;;;;;;2.00;1.33;;;19.70;81.40;22.20;97085.00;;;;5091293;28;20541;-73
2022/09/23 10:56:16;;;;;;;2.93;1.40;;;20.00;80.30;22.60;97091.00;;;;5091434;28;20283;-73
2022/09/23 10:59:30;;;;;;;2.10;1.60;;;;;22.20;97089.00;;;;5085650;28;20241;-73
2022/09/23 11:02:48;;;;;;;5.83;3.67;;;20.40;73.70;22.80;97078.00;;;;5090832;28;20682;-73
2022/09/23 11:05:45;;;;;;;2.33;1.50;;;20.60;75.50;23.40;97077.00;;;;5091050;28;20207;-73
2022/09/23 11:08:54;;;;;;;3.70;1.47;;;21.00;76.00;21.80;97078.00;;;;5090117;28;20234;-73
2022/09/23 11:12:07;;;;;;;1.57;1.30;;;21.30;69.90;21.50;97068.00;;;;5089869;28;20203;-71
2022/09/23 11:15:23;;;;;;;2.40;1.23;;;20.70;70.10;19.80;97053.00;;;;5082966;28;20191;-73
2022/09/23 11:18:48;;;;;;;2.63;1.40;;;20.20;67.00;22.50;97060.00;;;;5090332;28;20747;-73
2022/09/23 11:21:57;;;;;;;1.10;1.00;;;20.10;70.60;23.20;97066.00;;;;5080989;28;20207;-72
2022/09/23 11:25:13;;;;;;;3.23;1.43;;;20.70;71.20;23.10;97048.00;;;;5091467;28;20202;-72
2022/09/23 11:28:28;;;;;;;2.37;1.20;;;21.30;67.60;23.10;97051.00;;;;5085641;28;20700;-72
2022/09/23 11:31:32;;;;;;;1.60;1.50;;;21.50;65.30;23.70;97043.00;;;;5091590;28;20203;-73
2022/09/23 11:34:48;;;;;;;1.37;1.20;;;21.60;63.90;23.00;97037.00;;;;5090605;28;20608;-72
2022/09/23 11:37:43;;;;;;;1.60;1.20;;;21.70;61.20;24.60;97052.00;;;;5090914;28;20230;-73
2022/09/23 11:40:35;;;;;;;3.57;1.43;;;22.00;64.30;25.30;97045.00;;;;5091102;28;20196;-73
2022/09/23 11:43:27;;;;;;;1.90;1.63;;;22.50;64.90;24.10;97045.00;;;;5079786;28;20283;-72
2022/09/23 11:46:29;;;;;;;1.37;1.27;;;22.80;59.80;22.20;97037.00;;;;5090222;28;20203;-75
2022/09/23 11:49:28;;;;;;;1.30;1.20;;;22.60;58.00;23.20;97031.00;;;;5091272;28;20223;-73
2022/09/23 11:52:24;;;;;;;1.63;1.10;;;22.10;60.50;24.60;97032.00;;;;5091402;28;20691;-74
2022/09/23 11:55:19;;;;;;;1.07;1.00;;;22.20;60.70;25.10;97027.00;;;;5083691;28;20273;-72
2022/09/23 11:58:17;;;;;;;1.20;1.10;;;22.60;60.20;25.20;97023.00;;;;5087715;28;20212;-72
2022/09/23 12:01:18;;;;;;;2.73;1.20;;;22.90;58.80;25.20;97020.00;;;;5086302;28;20195;-71
2022/09/23 12:04:19;;;;;;;1.57;1.10;;;23.10;58.80;25.10;97024.00;;;;5089040;28;20230;-71
2022/09/23 12:07:15;;;;;;;1.73;1.10;;;23.40;58.40;25.60;97014.00;;;;5085973;28;20723;-74
2022/09/23 12:10:07;;;;;;;1.40;1.00;;;23.60;58.40;25.30;97025.00;;;;5085431;28;20282;-74
2022/09/23 12:13:07;;;;;;;1.23;1.13;;;23.80;56.80;26.30;97020.00;;;;5084036;28;20604;-74
2022/09/23 12:16:31;;;;;;;2.20;1.37;;;24.10;57.20;25.20;97005.00;;;;5087183;28;20207;-73
2022/09/23 12:19:39;;;;;;;1.50;1.40;;;23.90;55.50;23.60;97017.00;;;;5088677;28;20297;-71
2022/09/23 12:22:44;;;;;;;2.80;1.70;;;23.60;56.70;23.70;97006.00;;;;5083563;28;20313;-72
2022/09/23 12:25:45;;;;;;;2.00;1.50;;;23.50;56.10;23.20;97001.00;;;;5086386;28;20195;-70
2022/09/23 12:28:38;;;;;;;3.23;1.60;;;23.30;54.50;22.60;96999.00;;;;5082219;28;20682;-71
2022/09/23 12:31:36;;;;;;;2.50;1.57;;;22.80;55.80;21.60;96990.00;;;;5085516;28;20217;-65
2022/09/23 12:34:33;;;;;;;2.80;1.30;;;22.00;55.80;23.10;96983.00;;;;5086873;28;20585;-72
2022/09/23 12:37:29;;;;;;;2.03;1.57;;;21.80;57.30;21.20;96979.00;;;;5085137;28;20218;-75
2022/09/23 12:40:22;;;;;;;2.03;1.50;;;21.30;57.30;22.00;96973.00;;;;5089458;28;20199;-73
2022/09/23 12:43:21;;;;;;;1.83;1.30;;;21.20;58.50;22.00;96967.00;;;;5089166;28;20215;-69
2022/09/23 12:46:21;;;;;;;1.60;1.50;;;21.00;58.30;22.90;96975.00;;;;5081593;28;20198;-71
2022/09/23 12:49:25;;;;;;;1.50;1.37;;;21.30;58.60;23.60;96968.00;;;;5086511;28;20223;-68
2022/09/23 12:52:28;;;;;;;2.13;1.53;;;21.90;57.80;24.10;96958.00;;;;5085354;28;20203;-69
2022/09/23 12:55:45;;;;;;;2.93;1.27;;;22.10;57.90;25.40;96957.00;;;;5087841;28;20204;-69
2022/09/23 12:58:39;;;;;;;1.53;1.27;;;22.70;57.80;26.10;96955.00;;;;5088681;28;20207;-69
2022/09/23 13:01:37;;;;;;;2.00;1.10;;;23.40;57.40;24.90;96949.00;;;;5096424;22;20236;-77
2022/09/23 13:07:45;;;;;;;1.50;1.40;;;23.60;54.80;25.30;96958.00;;;;5046869;28;20201;-77
2022/09/23 13:10:42;;;;;;;2.40;2.00;;;23.70;54.80;26.00;96960.00;;;;5046533;28;20200;-76
2022/09/23 13:13:38;;;;;;;1.60;1.47;;;24.00;55.30;27.20;96965.00;;;;5030064;28;20199;-77
2022/09/23 13:16:33;;;;;;;1.43;1.30;;;24.30;55.50;28.00;96968.00;;;;5027523;28;20208;-78